sensor_id;sensor_type;location;lat;lon;timestamp;pressure;altitude;pressure_sealevel;temperature;humidity
45813;BME280;31519;45.408;10.962;2023-06-19T00:01:06;100634.72;;;27.71;50.87
45813;BME280;31519;45.408;10.962;2023-06-19T00:03:39;100637.31;;;27.28;52.10
45813;BME280;31519;45.408;10.962;2023-06-19T00:06:09;100640.81;;;27.79;51.27
45813;BME280;31519;45.408;10.962;2023-06-19T00:08:40;100632.34;;;27.47;52.17
45813;BME280;31519;45.408;10.962;2023-06-19T00:11:11;100634.22;;;27.53;52.04
45813;BME280;31519;45.408;10.962;2023-06-19T00:13:39;100634.72;;;27.71;51.71
45813;BME280;31519;45.408;10.962;2023-06-19T00:16:07;100635.28;;;27.59;52.23
45813;BME280;31519;45.408;10.962;2023-06-19T00:18:35;100637.16;;;26.82;54.64
45813;BME280;31519;45.408;10.962;2023-06-19T00:21:09;100633.88;;;26.98;54.66
45813;BME280;31519;45.408;10.962;2023-06-19T00:23:37;100631.31;;;26.53;55.78
45813;BME280;31519;45.408;10.962;2023-06-19T00:26:05;100641.63;;;26.69;55.10
45813;BME280;31519;45.408;10.962;2023-06-19T00:28:35;100643.91;;;26.40;56.46
45813;BME280;31519;45.408;10.962;2023-06-19T00:31:07;100632.16;;;26.46;56.45
45813;BME280;31519;45.408;10.962;2023-06-19T00:33:35;100642.91;;;27.21;54.48
45813;BME280;31519;45.408;10.962;2023-06-19T00:36:11;100640.59;;;27.70;53.33
45813;BME280;31519;45.408;10.962;2023-06-19T00:38:40;100641.06;;;27.38;53.86
45813;BME280;31519;45.408;10.962;2023-06-19T00:41:08;100642.78;;;27.55;53.32
45813;BME280;31519;45.408;10.962;2023-06-19T00:43:36;100642.69;;;27.86;52.41
45813;BME280;31519;45.408;10.962;2023-06-19T00:46:05;100648.25;;;27.28;53.74
45813;BME280;31519;45.408;10.962;2023-06-19T00:48:34;100645.75;;;26.50;56.03
45813;BME280;31519;45.408;10.962;2023-06-19T00:51:02;100653.22;;;26.46;56.86
45813;BME280;31519;45.408;10.962;2023-06-19T00:53:32;100650.59;;;26.69;55.91
45813;BME280;31519;45.408;10.962;2023-06-19T00:56:03;100656.66;;;26.84;55.60
45813;BME280;31519;45.408;10.962;2023-06-19T00:58:31;100657.88;;;27.40;54.19
45813;BME280;31519;45.408;10.962;2023-06-19T01:01:00;100659.88;;;27.63;53.30
45813;BME280;31519;45.408;10.962;2023-06-19T01:03:36;100666.53;;;27.08;54.04
45813;BME280;31519;45.408;10.962;2023-06-19T01:06:15;100671.28;;;27.58;52.57
45813;BME280;31519;45.408;10.962;2023-06-19T01:08:55;100669.03;;;27.22;53.37
45813;BME280;31519;45.408;10.962;2023-06-19T01:11:32;100679.25;;;27.49;52.83
45813;BME280;31519;45.408;10.962;2023-06-19T01:14:26;100672.03;;;27.31;53.37
45813;BME280;31519;45.408;10.962;2023-06-19T01:16:56;100682.06;;;27.42;53.14
45813;BME280;31519;45.408;10.962;2023-06-19T01:19:25;100684.28;;;27.50;52.84
45813;BME280;31519;45.408;10.962;2023-06-19T01:21:54;100685.78;;;27.55;52.83
45813;BME280;31519;45.408;10.962;2023-06-19T01:24:22;100687.91;;;27.70;52.55
45813;BME280;31519;45.408;10.962;2023-06-19T01:26:51;100688.59;;;27.74;52.29
45813;BME280;31519;45.408;10.962;2023-06-19T01:29:21;100691.63;;;27.30;53.25
45813;BME280;31519;45.408;10.962;2023-06-19T01:32:04;100691.63;;;27.30;53.24
45813;BME280;31519;45.408;10.962;2023-06-19T01:34:34;100693.19;;;27.31;53.43
45813;BME280;31519;45.408;10.962;2023-06-19T01:37:09;100697.44;;;27.32;53.27
45813;BME280;31519;45.408;10.962;2023-06-19T01:39:39;100692.91;;;26.92;54.64
45813;BME280;31519;45.408;10.962;2023-06-19T01:42:12;100691.50;;;27.37;53.66
45813;BME280;31519;45.408;10.962;2023-06-19T01:44:41;100688.72;;;27.14;54.07
45813;BME280;31519;45.408;10.962;2023-06-19T01:47:10;100691.88;;;27.12;54.01
45813;BME280;31519;45.408;10.962;2023-06-19T01:49:42;100702.47;;;27.64;52.79
45813;BME280;31519;45.408;10.962;2023-06-19T01:52:10;100694.91;;;27.48;52.91
45813;BME280;31519;45.408;10.962;2023-06-19T01:54:39;100696.19;;;27.67;53.05
45813;BME280;31519;45.408;10.962;2023-06-19T01:57:07;100693.69;;;27.76;52.81
45813;BME280;31519;45.408;10.962;2023-06-19T01:59:36;100695.72;;;27.45;53.41
45813;BME280;31519;45.408;10.962;2023-06-19T02:02:05;100687.13;;;27.43;53.82
45813;BME280;31519;45.408;10.962;2023-06-19T02:04:34;100690.53;;;27.51;53.23
45813;BME280;31519;45.408;10.962;2023-06-19T02:07:04;100697.44;;;27.32;53.91
45813;BME280;31519;45.408;10.962;2023-06-19T02:09:32;100701.19;;;27.45;53.61
45813;BME280;31519;45.408;10.962;2023-06-19T02:12:00;100699.13;;;27.22;53.98
45813;BME280;31519;45.408;10.962;2023-06-19T02:14:28;100708.28;;;27.39;53.52
45813;BME280;31519;45.408;10.962;2023-06-19T02:16:56;100712.28;;;27.34;53.50
45813;BME280;31519;45.408;10.962;2023-06-19T02:19:24;100714.53;;;26.79;55.14
45813;BME280;31519;45.408;10.962;2023-06-19T02:21:53;100716.44;;;26.82;55.44
45813;BME280;31519;45.408;10.962;2023-06-19T02:24:21;100712.09;;;27.18;54.48
45813;BME280;31519;45.408;10.962;2023-06-19T02:26:50;100715.00;;;27.34;53.93
45813;BME280;31519;45.408;10.962;2023-06-19T02:29:18;100713.44;;;27.33;54.02
45813;BME280;31519;45.408;10.962;2023-06-19T02:31:47;100711.13;;;26.68;55.82
45813;BME280;31519;45.408;10.962;2023-06-19T02:34:15;100714.69;;;26.65;55.76
45813;BME280;31519;45.408;10.962;2023-06-19T02:36:44;100713.16;;;26.98;55.12
45813;BME280;31519;45.408;10.962;2023-06-19T02:39:15;100719.16;;;27.16;54.15
45813;BME280;31519;45.408;10.962;2023-06-19T02:41:43;100712.44;;;26.94;55.28
45813;BME280;31519;45.408;10.962;2023-06-19T02:44:13;100719.38;;;27.28;54.39
45813;BME280;31519;45.408;10.962;2023-06-19T02:46:44;100709.69;;;27.51;53.70
45813;BME280;31519;45.408;10.962;2023-06-19T02:49:12;100717.34;;;27.63;53.27
45813;BME280;31519;45.408;10.962;2023-06-19T02:51:40;100715.59;;;27.46;53.42
45813;BME280;31519;45.408;10.962;2023-06-19T02:54:09;100718.97;;;27.84;52.26
45813;BME280;31519;45.408;10.962;2023-06-19T02:56:38;100714.25;;;27.61;52.46
45813;BME280;31519;45.408;10.962;2023-06-19T02:59:06;100718.16;;;27.60;52.41
45813;BME280;31519;45.408;10.962;2023-06-19T03:01:35;100718.47;;;27.39;52.64
45813;BME280;31519;45.408;10.962;2023-06-19T03:04:04;100719.69;;;27.34;52.99
45813;BME280;31519;45.408;10.962;2023-06-19T03:06:32;100718.13;;;27.06;53.74
45813;BME280;31519;45.408;10.962;2023-06-19T03:09:07;100719.91;;;27.47;52.65
45813;BME280;31519;45.408;10.962;2023-06-19T03:11:40;100725.84;;;27.42;52.48
45813;BME280;31519;45.408;10.962;2023-06-19T03:14:09;100720.91;;;27.03;53.77
45813;BME280;31519;45.408;10.962;2023-06-19T03:16:38;100726.69;;;26.74;54.77
45813;BME280;31519;45.408;10.962;2023-06-19T03:19:06;100720.69;;;26.86;54.61
45813;BME280;31519;45.408;10.962;2023-06-19T03:21:35;100716.09;;;26.80;54.68
45813;BME280;31519;45.408;10.962;2023-06-19T03:24:04;100729.00;;;26.76;54.48
45813;BME280;31519;45.408;10.962;2023-06-19T03:26:34;100726.28;;;27.10;53.43
45813;BME280;31519;45.408;10.962;2023-06-19T03:29:02;100720.66;;;27.20;52.87
45813;BME280;31519;45.408;10.962;2023-06-19T03:31:54;100725.31;;;27.23;53.20
45813;BME280;31519;45.408;10.962;2023-06-19T03:34:27;100731.69;;;26.79;54.19
45813;BME280;31519;45.408;10.962;2023-06-19T03:36:55;100723.22;;;27.04;53.77
45813;BME280;31519;45.408;10.962;2023-06-19T03:39:24;100729.59;;;26.94;54.24
45813;BME280;31519;45.408;10.962;2023-06-19T03:41:57;100729.69;;;26.87;54.49
45813;BME280;31519;45.408;10.962;2023-06-19T03:44:26;100727.38;;;26.85;54.62
45813;BME280;31519;45.408;10.962;2023-06-19T03:46:55;100728.13;;;26.82;54.71
45813;BME280;31519;45.408;10.962;2023-06-19T03:49:23;100729.22;;;26.92;54.58
45813;BME280;31519;45.408;10.962;2023-06-19T03:51:52;100735.47;;;27.23;53.77
45813;BME280;31519;45.408;10.962;2023-06-19T03:54:24;100728.22;;;27.09;54.05
45813;BME280;31519;45.408;10.962;2023-06-19T03:56:54;100730.00;;;26.93;54.73
45813;BME280;31519;45.408;10.962;2023-06-19T03:59:22;100734.00;;;26.84;55.00
45813;BME280;31519;45.408;10.962;2023-06-19T04:01:50;100736.69;;;26.88;54.80
45813;BME280;31519;45.408;10.962;2023-06-19T04:04:18;100738.84;;;26.70;55.85
45813;BME280;31519;45.408;10.962;2023-06-19T04:06:47;100741.38;;;26.87;55.00
45813;BME280;31519;45.408;10.962;2023-06-19T04:09:15;100730.84;;;26.89;54.99
45813;BME280;31519;45.408;10.962;2023-06-19T04:11:43;100742.13;;;26.92;54.83
45813;BME280;31519;45.408;10.962;2023-06-19T04:14:14;100736.50;;;26.68;55.96
45813;BME280;31519;45.408;10.962;2023-06-19T04:16:43;100734.16;;;26.70;55.50
45813;BME280;31519;45.408;10.962;2023-06-19T04:19:11;100736.34;;;26.82;55.67
45813;BME280;31519;45.408;10.962;2023-06-19T04:21:40;100729.38;;;27.12;54.58
45813;BME280;31519;45.408;10.962;2023-06-19T04:24:08;100729.19;;;27.26;54.05
45813;BME280;31519;45.408;10.962;2023-06-19T04:26:37;100728.03;;;27.23;54.25
45813;BME280;31519;45.408;10.962;2023-06-19T04:29:05;100730.91;;;27.43;53.58
45813;BME280;31519;45.408;10.962;2023-06-19T04:31:34;100730.00;;;27.53;53.10
45813;BME280;31519;45.408;10.962;2023-06-19T04:34:09;100730.03;;;27.76;52.96
45813;BME280;31519;45.408;10.962;2023-06-19T04:36:37;100732.88;;;27.69;53.02
45813;BME280;31519;45.408;10.962;2023-06-19T04:39:06;100730.53;;;27.95;52.22
45813;BME280;31519;45.408;10.962;2023-06-19T04:41:34;100724.03;;;27.85;52.54
45813;BME280;31519;45.408;10.962;2023-06-19T04:44:06;100730.91;;;27.70;53.03
45813;BME280;31519;45.408;10.962;2023-06-19T04:46:34;100722.66;;;27.97;52.65
45813;BME280;31519;45.408;10.962;2023-06-19T04:49:03;100726.56;;;28.23;51.40
45813;BME280;31519;45.408;10.962;2023-06-19T04:51:32;100724.63;;;28.43;50.70
45813;BME280;31519;45.408;10.962;2023-06-19T04:54:00;100730.63;;;27.88;52.70
45813;BME280;31519;45.408;10.962;2023-06-19T04:56:28;100727.72;;;27.98;51.89
45813;BME280;31519;45.408;10.962;2023-06-19T04:58:56;100723.84;;;27.96;51.83
45813;BME280;31519;45.408;10.962;2023-06-19T05:01:27;100724.34;;;27.91;51.35
45813;BME280;31519;45.408;10.962;2023-06-19T05:03:56;100730.66;;;28.11;50.89
45813;BME280;31519;45.408;10.962;2023-06-19T05:06:25;100729.47;;;28.12;50.76
45813;BME280;31519;45.408;10.962;2023-06-19T05:08:53;100727.25;;;28.03;51.21
45813;BME280;31519;45.408;10.962;2023-06-19T05:11:22;100730.63;;;27.88;51.03
45813;BME280;31519;45.408;10.962;2023-06-19T05:13:50;100725.41;;;27.16;52.31
45813;BME280;31519;45.408;10.962;2023-06-19T05:16:18;100729.13;;;27.29;52.08
45813;BME280;31519;45.408;10.962;2023-06-19T05:18:47;100728.41;;;26.95;53.09
45813;BME280;31519;45.408;10.962;2023-06-19T05:21:17;100737.53;;;27.15;52.53
45813;BME280;31519;45.408;10.962;2023-06-19T05:24:09;100731.69;;;26.79;53.58
45813;BME280;31519;45.408;10.962;2023-06-19T05:26:38;100733.78;;;26.68;53.20
45813;BME280;31519;45.408;10.962;2023-06-19T05:29:06;100727.31;;;26.52;53.89
45813;BME280;31519;45.408;10.962;2023-06-19T05:31:36;100735.13;;;26.53;53.97
45813;BME280;31519;45.408;10.962;2023-06-19T05:34:04;100745.22;;;26.15;54.38
45813;BME280;31519;45.408;10.962;2023-06-19T05:36:33;100739.22;;;26.31;54.89
45813;BME280;31519;45.408;10.962;2023-06-19T05:39:01;100737.22;;;25.90;56.28
45813;BME280;31519;45.408;10.962;2023-06-19T05:41:29;100738.09;;;27.00;53.70
45813;BME280;31519;45.408;10.962;2023-06-19T05:43:58;100735.53;;;27.19;53.32
45813;BME280;31519;45.408;10.962;2023-06-19T05:46:28;100728.13;;;27.73;51.85
45813;BME280;31519;45.408;10.962;2023-06-19T05:48:56;100731.69;;;26.79;54.66
45813;BME280;31519;45.408;10.962;2023-06-19T05:51:24;100734.22;;;26.63;56.04
45813;BME280;31519;45.408;10.962;2023-06-19T05:53:54;100742.50;;;26.56;55.85
45813;BME280;31519;45.408;10.962;2023-06-19T05:56:22;100738.78;;;26.36;56.98
45813;BME280;31519;45.408;10.962;2023-06-19T05:58:50;100737.66;;;26.71;54.84
45813;BME280;31519;45.408;10.962;2023-06-19T06:01:18;100749.50;;;26.16;56.99
45813;BME280;31519;45.408;10.962;2023-06-19T06:03:47;100735.78;;;26.64;56.28
45813;BME280;31519;45.408;10.962;2023-06-19T06:06:15;100739.38;;;26.58;55.65
45813;BME280;31519;45.408;10.962;2023-06-19T06:08:43;100737.44;;;26.55;55.88
45813;BME280;31519;45.408;10.962;2023-06-19T06:11:12;100753.25;;;27.08;54.89
45813;BME280;31519;45.408;10.962;2023-06-19T06:13:40;100750.09;;;26.75;55.54
45813;BME280;31519;45.408;10.962;2023-06-19T06:16:08;100744.78;;;26.99;54.55
45813;BME280;31519;45.408;10.962;2023-06-19T06:18:37;100741.25;;;27.59;52.84
45813;BME280;31519;45.408;10.962;2023-06-19T06:21:05;100741.63;;;26.66;55.45
45813;BME280;31519;45.408;10.962;2023-06-19T06:23:33;100736.44;;;27.36;54.20
45813;BME280;31519;45.408;10.962;2023-06-19T06:26:02;100742.44;;;26.97;54.19
45813;BME280;31519;45.408;10.962;2023-06-19T06:28:30;100733.53;;;26.93;54.64
45813;BME280;31519;45.408;10.962;2023-06-19T06:30:59;100732.84;;;27.43;52.80
45813;BME280;31519;45.408;10.962;2023-06-19T06:33:27;100737.59;;;27.39;53.26
45813;BME280;31519;45.408;10.962;2023-06-19T06:35:57;100731.59;;;27.51;53.10
45813;BME280;31519;45.408;10.962;2023-06-19T06:38:26;100729.88;;;27.03;55.08
45813;BME280;31519;45.408;10.962;2023-06-19T06:40:54;100725.16;;;27.88;52.82
45813;BME280;31519;45.408;10.962;2023-06-19T06:43:22;100723.84;;;28.62;50.61
45813;BME280;31519;45.408;10.962;2023-06-19T06:45:51;100722.56;;;29.26;48.88
45813;BME280;31519;45.408;10.962;2023-06-19T06:48:20;100719.28;;;29.15;49.28
45813;BME280;31519;45.408;10.962;2023-06-19T06:50:48;100715.69;;;29.70;48.19
45813;BME280;31519;45.408;10.962;2023-06-19T06:53:16;100716.56;;;29.83;48.12
45813;BME280;31519;45.408;10.962;2023-06-19T06:55:45;100724.66;;;30.35;46.49
45813;BME280;31519;45.408;10.962;2023-06-19T06:58:13;100713.75;;;30.31;46.43
45813;BME280;31519;45.408;10.962;2023-06-19T07:00:42;100710.69;;;30.13;46.66
45813;BME280;31519;45.408;10.962;2023-06-19T07:03:10;100711.31;;;30.05;47.01
45813;BME280;31519;45.408;10.962;2023-06-19T07:05:39;100715.00;;;29.98;46.77
45813;BME280;31519;45.408;10.962;2023-06-19T07:08:07;100716.66;;;30.41;46.33
45813;BME280;31519;45.408;10.962;2023-06-19T07:10:36;100713.91;;;29.96;46.85
45813;BME280;31519;45.408;10.962;2023-06-19T07:13:04;100717.38;;;30.12;46.98
45813;BME280;31519;45.408;10.962;2023-06-19T07:15:32;100712.78;;;30.09;46.56
45813;BME280;31519;45.408;10.962;2023-06-19T07:18:00;100712.41;;;30.23;46.10
45813;BME280;31519;45.408;10.962;2023-06-19T07:20:29;100703.84;;;30.05;45.51
45813;BME280;31519;45.408;10.962;2023-06-19T07:22:57;100708.81;;;30.10;45.78
45813;BME280;31519;45.408;10.962;2023-06-19T07:25:26;100703.84;;;30.92;44.15
45813;BME280;31519;45.408;10.962;2023-06-19T07:27:54;100698.94;;;31.12;43.70
45813;BME280;31519;45.408;10.962;2023-06-19T07:30:23;100706.81;;;30.97;44.07
45813;BME280;31519;45.408;10.962;2023-06-19T07:32:52;100708.16;;;30.06;45.24
45813;BME280;31519;45.408;10.962;2023-06-19T07:35:21;100701.31;;;30.97;44.31
45813;BME280;31519;45.408;10.962;2023-06-19T07:37:49;100708.69;;;30.30;44.99
45813;BME280;31519;45.408;10.962;2023-06-19T07:40:17;100706.53;;;30.37;44.95
45813;BME280;31519;45.408;10.962;2023-06-19T07:42:45;100709.06;;;30.45;45.22
45813;BME280;31519;45.408;10.962;2023-06-19T07:45:14;100712.81;;;30.38;45.56
45813;BME280;31519;45.408;10.962;2023-06-19T07:47:42;100707.91;;;31.00;44.25
45813;BME280;31519;45.408;10.962;2023-06-19T07:50:11;100718.09;;;31.41;42.65
45813;BME280;31519;45.408;10.962;2023-06-19T07:52:39;100714.50;;;31.56;42.30
45813;BME280;31519;45.408;10.962;2023-06-19T07:55:08;100721.72;;;29.97;46.72
45813;BME280;31519;45.408;10.962;2023-06-19T07:57:36;100722.22;;;30.08;46.58
45813;BME280;31519;45.408;10.962;2023-06-19T08:00:05;100721.56;;;29.88;47.87
45813;BME280;31519;45.408;10.962;2023-06-19T08:02:40;100724.03;;;28.94;48.90
45813;BME280;31519;45.408;10.962;2023-06-19T08:05:10;100726.41;;;28.92;49.32
45813;BME280;31519;45.408;10.962;2023-06-19T08:07:38;100731.41;;;29.69;47.62
45813;BME280;31519;45.408;10.962;2023-06-19T08:10:07;100738.19;;;28.73;49.84
45813;BME280;31519;45.408;10.962;2023-06-19T08:12:54;100732.91;;;28.82;49.13
45813;BME280;31519;45.408;10.962;2023-06-19T08:15:23;100745.09;;;28.58;49.34
45813;BME280;31519;45.408;10.962;2023-06-19T08:17:51;100737.53;;;28.85;49.13
45813;BME280;31519;45.408;10.962;2023-06-19T08:20:20;100744.81;;;29.31;49.12
45813;BME280;31519;45.408;10.962;2023-06-19T08:22:49;100739.97;;;29.19;49.72
45813;BME280;31519;45.408;10.962;2023-06-19T08:25:17;100742.94;;;29.44;48.81
45813;BME280;31519;45.408;10.962;2023-06-19T08:27:45;100751.69;;;29.39;49.35
45813;BME280;31519;45.408;10.962;2023-06-19T08:30:14;100756.03;;;28.81;50.87
45813;BME280;31519;45.408;10.962;2023-06-19T08:32:43;100754.41;;;28.60;51.50
45813;BME280;31519;45.408;10.962;2023-06-19T08:35:11;100750.09;;;28.63;50.81
45813;BME280;31519;45.408;10.962;2023-06-19T08:37:39;100747.34;;;29.42;49.53
45813;BME280;31519;45.408;10.962;2023-06-19T08:40:08;100758.03;;;28.97;50.05
45813;BME280;31519;45.408;10.962;2023-06-19T08:42:37;100759.88;;;29.59;48.40
45813;BME280;31519;45.408;10.962;2023-06-19T08:45:07;100757.03;;;29.27;48.59
45813;BME280;31519;45.408;10.962;2023-06-19T08:47:37;100750.22;;;29.35;49.55
45813;BME280;31519;45.408;10.962;2023-06-19T08:50:06;100755.84;;;28.69;51.58
45813;BME280;31519;45.408;10.962;2023-06-19T08:52:35;100760.03;;;28.77;50.93
45813;BME280;31519;45.408;10.962;2023-06-19T08:55:04;100760.72;;;29.00;50.40
45813;BME280;31519;45.408;10.962;2023-06-19T08:57:38;100759.63;;;30.18;47.88
45813;BME280;31519;45.408;10.962;2023-06-19T09:00:09;100758.34;;;30.23;48.10
45813;BME280;31519;45.408;10.962;2023-06-19T09:02:45;100759.50;;;29.57;50.20
45813;BME280;31519;45.408;10.962;2023-06-19T09:05:28;100757.56;;;29.74;50.47
45813;BME280;31519;45.408;10.962;2023-06-19T09:07:59;100758.44;;;29.35;50.24
45813;BME280;31519;45.408;10.962;2023-06-19T09:10:32;100757.06;;;29.79;48.37
45813;BME280;31519;45.408;10.962;2023-06-19T09:13:02;100749.34;;;29.90;49.16
45813;BME280;31519;45.408;10.962;2023-06-19T09:15:35;100751.19;;;30.25;48.23
45813;BME280;31519;45.408;10.962;2023-06-19T09:18:08;100754.88;;;29.70;49.04
45813;BME280;31519;45.408;10.962;2023-06-19T09:20:42;100759.28;;;29.68;49.16
45813;BME280;31519;45.408;10.962;2023-06-19T09:23:13;100752.75;;;30.26;47.36
45813;BME280;31519;45.408;10.962;2023-06-19T09:25:48;100758.94;;;29.82;49.10
45813;BME280;31519;45.408;10.962;2023-06-19T09:28:21;100756.56;;;30.61;47.59
45813;BME280;31519;45.408;10.962;2023-06-19T09:31:01;100755.25;;;30.21;48.01
45813;BME280;31519;45.408;10.962;2023-06-19T09:33:31;100760.66;;;29.76;48.16
45813;BME280;31519;45.408;10.962;2023-06-19T09:36:02;100751.34;;;30.79;46.29
45813;BME280;31519;45.408;10.962;2023-06-19T09:38:32;100743.41;;;31.23;44.48
45813;BME280;31519;45.408;10.962;2023-06-19T09:41:03;100750.09;;;30.68;43.71
45813;BME280;31519;45.408;10.962;2023-06-19T09:46:04;100742.59;;;30.97;43.62
45813;BME280;31519;45.408;10.962;2023-06-19T09:48:34;100753.66;;;31.98;42.36
45813;BME280;31519;45.408;10.962;2023-06-19T09:51:19;100746.19;;;30.94;44.83
45813;BME280;31519;45.408;10.962;2023-06-19T09:53:53;100743.41;;;31.36;43.67
45813;BME280;31519;45.408;10.962;2023-06-19T09:56:22;100745.88;;;31.59;43.46
45813;BME280;31519;45.408;10.962;2023-06-19T09:58:54;100740.31;;;32.87;41.85
45813;BME280;31519;45.408;10.962;2023-06-19T10:01:24;100746.22;;;33.29;40.65
45813;BME280;31519;45.408;10.962;2023-06-19T10:04:07;100746.09;;;32.24;40.21
45813;BME280;31519;45.408;10.962;2023-06-19T10:06:46;100753.09;;;32.03;40.21
45813;BME280;31519;45.408;10.962;2023-06-19T10:09:16;100746.88;;;33.33;38.80
45813;BME280;31519;45.408;10.962;2023-06-19T10:11:50;100749.47;;;33.68;38.18
45813;BME280;31519;45.408;10.962;2023-06-19T10:14:22;100746.91;;;33.12;38.66
45813;BME280;31519;45.408;10.962;2023-06-19T10:16:51;100742.09;;;33.03;39.24
45813;BME280;31519;45.408;10.962;2023-06-19T10:19:21;100739.75;;;32.36;38.76
45813;BME280;31519;45.408;10.962;2023-06-19T10:21:54;100742.16;;;33.43;36.95
45813;BME280;31519;45.408;10.962;2023-06-19T10:24:23;100748.56;;;33.71;36.53
45813;BME280;31519;45.408;10.962;2023-06-19T10:27:01;100744.53;;;32.58;37.35
45813;BME280;31519;45.408;10.962;2023-06-19T10:29:40;100742.94;;;32.47;36.78
45813;BME280;31519;45.408;10.962;2023-06-19T10:32:17;100735.00;;;32.15;37.34
45813;BME280;31519;45.408;10.962;2023-06-19T10:34:47;100736.16;;;31.67;38.17
45813;BME280;31519;45.408;10.962;2023-06-19T10:37:17;100734.22;;;32.49;36.52
45813;BME280;31519;45.408;10.962;2023-06-19T10:39:45;100737.34;;;33.34;35.75
45813;BME280;31519;45.408;10.962;2023-06-19T10:42:13;100732.53;;;34.33;34.75
45813;BME280;31519;45.408;10.962;2023-06-19T10:44:41;100742.03;;;34.14;34.51
45813;BME280;31519;45.408;10.962;2023-06-19T10:47:10;100735.44;;;34.39;34.35
45813;BME280;31519;45.408;10.962;2023-06-19T10:49:38;100738.22;;;34.20;34.06
45813;BME280;31519;45.408;10.962;2023-06-19T10:52:07;100730.97;;;34.14;33.92
45813;BME280;31519;45.408;10.962;2023-06-19T10:54:35;100734.84;;;34.25;33.66
45813;BME280;31519;45.408;10.962;2023-06-19T10:57:04;100730.84;;;34.36;33.04
45813;BME280;31519;45.408;10.962;2023-06-19T10:59:33;100738.69;;;34.28;34.01
45813;BME280;31519;45.408;10.962;2023-06-19T11:02:02;100723.78;;;33.58;35.24
45813;BME280;31519;45.408;10.962;2023-06-19T11:04:31;100728.97;;;33.47;35.64
45813;BME280;31519;45.408;10.962;2023-06-19T11:07:04;100720.97;;;33.40;35.34
45813;BME280;31519;45.408;10.962;2023-06-19T11:09:32;100719.78;;;32.88;35.26
45813;BME280;31519;45.408;10.962;2023-06-19T11:12:01;100718.34;;;33.86;34.47
45813;BME280;31519;45.408;10.962;2023-06-19T11:14:30;100716.06;;;34.11;34.83
45813;BME280;31519;45.408;10.962;2023-06-19T11:16:59;100708.88;;;34.23;34.51
45813;BME280;31519;45.408;10.962;2023-06-19T11:19:30;100715.75;;;35.33;33.44
45813;BME280;31519;45.408;10.962;2023-06-19T11:21:59;100704.84;;;35.53;32.30
45813;BME280;31519;45.408;10.962;2023-06-19T11:24:30;100705.13;;;34.81;32.96
45813;BME280;31519;45.408;10.962;2023-06-19T11:26:59;100706.56;;;35.18;33.71
45813;BME280;31519;45.408;10.962;2023-06-19T11:29:31;100705.78;;;34.48;31.89
45813;BME280;31519;45.408;10.962;2023-06-19T11:32:08;100705.50;;;35.06;32.14
45813;BME280;31519;45.408;10.962;2023-06-19T11:34:40;100699.63;;;35.23;31.21
45813;BME280;31519;45.408;10.962;2023-06-19T11:37:13;100700.41;;;34.36;31.83
45813;BME280;31519;45.408;10.962;2023-06-19T11:39:46;100702.22;;;33.93;32.59
45813;BME280;31519;45.408;10.962;2023-06-19T11:42:16;100697.41;;;34.94;31.77
45813;BME280;31519;45.408;10.962;2023-06-19T11:45:00;100703.63;;;34.16;32.45
45813;BME280;31519;45.408;10.962;2023-06-19T11:47:34;100693.94;;;33.93;32.36
45813;BME280;31519;45.408;10.962;2023-06-19T11:50:05;100694.72;;;34.03;33.56
45813;BME280;31519;45.408;10.962;2023-06-19T11:52:34;100686.13;;;33.42;34.02
45813;BME280;31519;45.408;10.962;2023-06-19T11:55:02;100694.09;;;34.08;32.92
45813;BME280;31519;45.408;10.962;2023-06-19T11:57:30;100687.50;;;34.14;32.19
45813;BME280;31519;45.408;10.962;2023-06-19T12:00:01;100683.50;;;34.43;32.43
45813;BME280;31519;45.408;10.962;2023-06-19T12:02:39;100678.47;;;34.32;32.04
45813;BME280;31519;45.408;10.962;2023-06-19T12:05:08;100670.28;;;34.38;32.34
45813;BME280;31519;45.408;10.962;2023-06-19T12:07:37;100673.78;;;34.56;32.61
45813;BME280;31519;45.408;10.962;2023-06-19T12:10:06;100668.13;;;34.51;32.11
45813;BME280;31519;45.408;10.962;2023-06-19T12:12:39;100659.25;;;33.25;34.50
45813;BME280;31519;45.408;10.962;2023-06-19T12:15:07;100656.78;;;33.85;34.09
45813;BME280;31519;45.408;10.962;2023-06-19T12:17:36;100658.94;;;33.99;33.31
45813;BME280;31519;45.408;10.962;2023-06-19T12:20:05;100651.56;;;34.33;33.19
45813;BME280;31519;45.408;10.962;2023-06-19T12:22:35;100642.63;;;34.10;32.73
45813;BME280;31519;45.408;10.962;2023-06-19T12:25:03;100651.44;;;34.87;32.49
45813;BME280;31519;45.408;10.962;2023-06-19T12:27:32;100645.00;;;35.71;31.67
45813;BME280;31519;45.408;10.962;2023-06-19T12:30:01;100643.81;;;36.25;30.88
45813;BME280;31519;45.408;10.962;2023-06-19T12:32:30;100658.72;;;34.66;31.23
45813;BME280;31519;45.408;10.962;2023-06-19T12:34:59;100644.50;;;34.92;30.36
45813;BME280;31519;45.408;10.962;2023-06-19T12:37:27;100650.78;;;35.01;30.54
45813;BME280;31519;45.408;10.962;2023-06-19T12:39:56;100651.06;;;35.03;30.92
45813;BME280;31519;45.408;10.962;2023-06-19T12:42:25;100648.75;;;34.60;30.77
45813;BME280;31519;45.408;10.962;2023-06-19T12:44:53;100641.75;;;35.15;30.00
45813;BME280;31519;45.408;10.962;2023-06-19T12:47:21;100645.81;;;35.38;29.68
45813;BME280;31519;45.408;10.962;2023-06-19T12:49:49;100637.88;;;35.55;29.68
45813;BME280;31519;45.408;10.962;2023-06-19T12:52:18;100642.72;;;34.61;29.81
45813;BME280;31519;45.408;10.962;2023-06-19T12:54:46;100634.09;;;35.43;29.35
45813;BME280;31519;45.408;10.962;2023-06-19T12:57:14;100634.41;;;35.12;29.56